createdAt,value
2016-03-20T00:01:49.182Z,1010.41
2016-03-20T00:04:52.318Z,1010.47
2016-03-20T00:08:04.310Z,1010.49
2016-03-20T00:11:14.600Z,1010.45
2016-03-20T00:14:26.576Z,1010.51
2016-03-20T00:17:40.929Z,1010.41
2016-03-20T00:20:47.952Z,1010.33
2016-03-20T00:23:51.023Z,1010.25
2016-03-20T00:27:02.956Z,1010.19
2016-03-20T00:30:14.729Z,1010.15
2016-03-20T00:33:26.893Z,1010.07
2016-03-20T00:36:42.886Z,1010.15
2016-03-20T00:39:46.066Z,1010.13
2016-03-20T00:42:57.999Z,1010.03
2016-03-20T00:46:09.897Z,1009.95
2016-03-20T00:49:21.671Z,1010.05
2016-03-20T00:52:32.554Z,1009.85
2016-03-20T00:55:46.202Z,1009.99
2016-03-20T00:58:49.289Z,1009.93
2016-03-20T01:01:58.284Z,1010.15
2016-03-20T01:05:09.933Z,1010.05
2016-03-20T01:08:21.941Z,1010.01
2016-03-20T01:11:34.027Z,1009.85
2016-03-20T01:14:45.832Z,1010.01
2016-03-20T01:17:54.233Z,1009.95
2016-03-20T01:21:05.444Z,1009.84
2016-03-20T01:24:14.874Z,1009.87
2016-03-20T01:27:26.804Z,1009.89
2016-03-20T01:30:40.485Z,1009.87
2016-03-20T01:33:47.524Z,1009.74
2016-03-20T01:36:50.391Z,1009.7
2016-03-20T01:39:59.699Z,1009.62
2016-03-20T01:43:08.644Z,1009.58
2016-03-20T01:46:20.777Z,1009.56
2016-03-20T01:49:32.863Z,1009.54
2016-03-20T01:52:47.419Z,1009.48
2016-03-20T01:55:50.458Z,1009.54
2016-03-20T01:59:02.328Z,1009.52
2016-03-20T02:02:14.742Z,1009.48
2016-03-20T02:05:24.704Z,1009.4
2016-03-20T02:08:35.242Z,1009.24
2016-03-20T02:11:48.001Z,1009.2
2016-03-20T02:14:51.056Z,1009.12
2016-03-20T02:18:00.644Z,1009.04
2016-03-20T02:21:12.746Z,1009.04
2016-03-20T02:24:24.786Z,1009.08
2016-03-20T02:27:34.841Z,1009.06
2016-03-20T02:30:47.912Z,1009.18
2016-03-20T02:33:50.826Z,1009.18
2016-03-20T02:37:02.165Z,1009.14
2016-03-20T02:40:11.689Z,1009.18
2016-03-20T02:43:23.508Z,1009.14
2016-03-20T02:46:35.250Z,1009.16
2016-03-20T02:49:47.931Z,1009.18
2016-03-20T02:52:50.986Z,1009.2
2016-03-20T02:56:00.466Z,1009.12
2016-03-20T02:59:12.348Z,1009.08
2016-03-20T03:02:21.684Z,1008.98
2016-03-20T03:05:31.615Z,1008.98
2016-03-20T03:08:44.833Z,1008.98
2016-03-20T03:11:47.716Z,1008.94
2016-03-20T03:14:59.367Z,1008.88
2016-03-20T03:18:07.657Z,1008.88
2016-03-20T03:21:19.399Z,1008.92
2016-03-20T03:24:29.360Z,1008.86
2016-03-20T03:27:45.087Z,1008.86
2016-03-20T03:30:47.907Z,1008.88
2016-03-20T03:33:57.153Z,1008.78
2016-03-20T03:37:08.880Z,1008.74
2016-03-20T03:40:18.465Z,1008.78
2016-03-20T03:43:27.505Z,1008.82
2016-03-20T03:46:40.372Z,1008.78
2016-03-20T03:49:47.287Z,1008.86
2016-03-20T03:52:50.249Z,1008.76
2016-03-20T03:55:58.181Z,1008.78
2016-03-20T03:59:05.360Z,1008.72
2016-03-20T04:02:18.431Z,1008.8
2016-03-20T04:05:29.585Z,1008.8
2016-03-20T04:08:42.639Z,1008.68
2016-03-20T04:11:49.492Z,1008.76
2016-03-20T04:14:52.500Z,1008.66
2016-03-20T04:18:04.073Z,1008.6
2016-03-20T04:21:15.987Z,1008.6
2016-03-20T04:24:27.979Z,1008.56
2016-03-20T04:27:43.837Z,1008.38
2016-03-20T04:30:46.744Z,1008.52
2016-03-20T04:33:55.478Z,1008.34
2016-03-20T04:37:07.443Z,1008.38
2016-03-20T04:40:18.946Z,1008.32
2016-03-20T04:43:30.607Z,1008.28
2016-03-20T04:46:46.347Z,1008.38
2016-03-20T04:49:49.245Z,1008.32
2016-03-20T04:52:59.459Z,1008.38
2016-03-20T04:56:11.250Z,1008.32
2016-03-20T04:59:21.398Z,1008.5
2016-03-20T05:02:33.141Z,1008.28
2016-03-20T05:05:46.617Z,1008.44
2016-03-20T05:08:49.500Z,1008.36
2016-03-20T05:12:01.682Z,1008.34
2016-03-20T05:15:13.565Z,1008.32
2016-03-20T05:18:25.354Z,1008.32
2016-03-20T05:21:34.348Z,1008.34
2016-03-20T05:24:46.137Z,1008.43
2016-03-20T05:27:55.675Z,1008.44
2016-03-20T05:31:05.827Z,1008.36
2016-03-20T05:34:14.538Z,1008.38
2016-03-20T05:37:26.546Z,1008.46
2016-03-20T05:40:42.335Z,1008.3
2016-03-20T05:43:49.078Z,1008.43
2016-03-20T05:46:51.883Z,1008.43
2016-03-20T05:50:03.473Z,1008.44
2016-03-20T05:53:11.856Z,1008.38
2016-03-20T05:56:23.628Z,1008.34
2016-03-20T05:59:35.294Z,1008.3
2016-03-20T06:02:46.927Z,1008.32
2016-03-20T06:05:58.527Z,1008.38
2016-03-20T06:09:10.024Z,1008.18
2016-03-20T06:12:21.859Z,1008.22
2016-03-20T06:15:33.743Z,1008.6
2016-03-20T06:18:49.516Z,1008.54
2016-03-20T06:21:52.368Z,1008.54
2016-03-20T06:25:04.050Z,1008.48
2016-03-20T06:28:15.855Z,1008.38
2016-03-20T06:31:25.489Z,1008.38
2016-03-20T06:34:41.309Z,1008.28
2016-03-20T06:37:48.301Z,1008.46
2016-03-20T06:40:51.263Z,1008.43
2016-03-20T06:44:02.899Z,1008.46
2016-03-20T06:47:14.673Z,1008.43
2016-03-20T06:50:26.383Z,1008.46
2016-03-20T06:53:41.939Z,1008.38
2016-03-20T06:56:48.806Z,1008.34
2016-03-20T06:59:51.642Z,1008.3
2016-03-20T07:03:01.919Z,1008.34
2016-03-20T07:06:13.599Z,1008.36
2016-03-20T07:09:25.716Z,1008.34
2016-03-20T07:12:41.052Z,1008.34
2016-03-20T07:15:48.091Z,1008.36
2016-03-20T07:18:51.021Z,1008.24
2016-03-20T07:21:59.232Z,1008.3
2016-03-20T07:25:10.837Z,1008.26
2016-03-20T07:28:20.704Z,1008.44
2016-03-20T07:31:32.525Z,1008.43
2016-03-20T07:34:47.580Z,1008.36
2016-03-20T07:37:50.669Z,1008.36
2016-03-20T07:41:00.614Z,1008.5
2016-03-20T07:44:10.219Z,1008.52
2016-03-20T07:47:21.649Z,1008.58
2016-03-20T07:50:30.829Z,1008.48
2016-03-20T07:53:46.728Z,1008.44
2016-03-20T07:56:49.924Z,1008.54
2016-03-20T08:00:02.043Z,1008.52
2016-03-20T08:03:13.833Z,1008.44
2016-03-20T08:06:26.075Z,1008.36
2016-03-20T08:09:41.864Z,1008.46
2016-03-20T08:12:49.028Z,1008.44
2016-03-20T08:15:52.036Z,1008.43
2016-03-20T08:19:03.938Z,1008.44
2016-03-20T08:22:14.462Z,1008.26
2016-03-20T08:25:26.579Z,1008.38
2016-03-20T08:28:42.526Z,1008.2
2016-03-20T08:31:49.486Z,1008.44
2016-03-20T08:34:52.681Z,1008.24
2016-03-20T08:38:01.786Z,1008.28
2016-03-20T08:41:11.372Z,1008.28
2016-03-20T08:44:23.489Z,1008.24
2016-03-20T08:47:35.482Z,1008.3
2016-03-20T08:50:47.318Z,1008.28
2016-03-20T08:53:59.342Z,1008.2
2016-03-20T08:57:11.478Z,1008.3
2016-03-20T09:00:23.845Z,1008.2
2016-03-20T09:03:35.885Z,1008.26
2016-03-20T09:06:49.533Z,1008.38
2016-03-20T09:09:52.635Z,1008.32
2016-03-20T09:13:04.583Z,1008.34
2016-03-20T09:16:13.966Z,1008.28
2016-03-20T09:19:25.177Z,1008.34
2016-03-20T09:22:35.310Z,1008.36
2016-03-20T09:25:46.459Z,1008.22
2016-03-20T09:28:58.357Z,1008.43
2016-03-20T09:32:08.135Z,1008.26
2016-03-20T09:35:18.033Z,1008.24
2016-03-20T09:38:30.073Z,1008.2
2016-03-20T09:41:45.956Z,1008.18
2016-03-20T09:44:49.011Z,1008.3
2016-03-20T09:48:00.925Z,1008.16
2016-03-20T09:51:12.874Z,1008.1
2016-03-20T09:54:24.944Z,1008.16
2016-03-20T09:57:35.093Z,1008.1
2016-03-20T10:00:48.568Z,1008.08
2016-03-20T10:03:51.531Z,1008.12
2016-03-20T10:07:01.039Z,1008.1
2016-03-20T10:10:10.675Z,1007.95
2016-03-20T10:13:22.636Z,1008.1
2016-03-20T10:16:34.768Z,1008
2016-03-20T10:19:47.854Z,1007.97
2016-03-20T10:22:50.957Z,1007.95
2016-03-20T10:26:02.949Z,1007.97
2016-03-20T10:29:12.897Z,1007.93
2016-03-20T10:32:22.187Z,1007.93
2016-03-20T10:35:32.367Z,1007.95
2016-03-20T10:38:48.406Z,1007.87
2016-03-20T10:41:51.461Z,1007.97
2016-03-20T10:45:00.875Z,1007.93
2016-03-20T10:48:11.495Z,1007.83
2016-03-20T10:51:24.816Z,1007.93
2016-03-20T10:54:40.839Z,1007.77
2016-03-20T10:57:47.910Z,1007.85
2016-03-20T11:00:51.105Z,1007.83
2016-03-20T11:04:02.988Z,1007.75
2016-03-20T11:07:14.936Z,1007.75
2016-03-20T11:10:24.867Z,1007.71
2016-03-20T11:13:40.765Z,1007.71
2016-03-20T11:16:47.820Z,1007.55
2016-03-20T11:19:50.875Z,1007.53
2016-03-20T11:23:02.852Z,1007.61
2016-03-20T11:26:12.769Z,1007.49
2016-03-20T11:29:24.824Z,1007.45
2016-03-20T11:32:40.613Z,1007.41
2016-03-20T11:35:47.746Z,1007.53
2016-03-20T11:38:50.864Z,1007.57
2016-03-20T11:42:02.997Z,1007.47
2016-03-20T11:45:14.961Z,1007.61
2016-03-20T11:48:24.313Z,1007.61
2016-03-20T11:51:33.899Z,1007.59
2016-03-20T11:54:48.375Z,1007.51
2016-03-20T11:57:51.524Z,1007.61
2016-03-20T12:01:03.486Z,1007.47
2016-03-20T12:04:12.652Z,1007.33
2016-03-20T12:07:24.598Z,1007.35
2016-03-20T12:10:36.622Z,1007.35
2016-03-20T12:13:48.646Z,1007.27
2016-03-20T12:16:58.169Z,1007.37
2016-03-20T12:20:09.570Z,1007.11
2016-03-20T12:23:19.578Z,1007.17
2016-03-20T12:26:29.056Z,1007.23
2016-03-20T12:29:44.892Z,1007.23
2016-03-20T12:32:48.103Z,1007.23
2016-03-20T12:35:57.658Z,1007.25
2016-03-20T12:39:06.104Z,1007.25
2016-03-20T12:42:15.412Z,1007.17
2016-03-20T12:45:27.403Z,1007.13
2016-03-20T12:48:36.506Z,1007.01
2016-03-20T12:51:50.967Z,1007.15
2016-03-20T12:54:54.303Z,1007.11
2016-03-20T12:58:05.013Z,1007.05
2016-03-20T13:01:15.212Z,1006.99
2016-03-20T13:04:24.642Z,1006.99
2016-03-20T13:07:36.821Z,1007.05
2016-03-20T13:10:48.893Z,1006.85
2016-03-20T13:13:58.417Z,1006.91
2016-03-20T13:17:08.409Z,1006.93
2016-03-20T13:20:20.436Z,1006.75
2016-03-20T13:23:29.647Z,1006.85
2016-03-20T13:26:45.248Z,1006.75
2016-03-20T13:29:48.678Z,1006.73
2016-03-20T13:33:01.031Z,1006.67
2016-03-20T13:36:13.261Z,1006.69
2016-03-20T13:39:24.263Z,1006.77
2016-03-20T13:42:41.567Z,1006.77
2016-03-20T13:45:48.836Z,1006.67
2016-03-20T13:48:52.152Z,1006.69
2016-03-20T13:52:04.063Z,1006.61
2016-03-20T13:55:16.149Z,1006.65
2016-03-20T13:58:28.377Z,1006.73
2016-03-20T14:01:43.791Z,1006.57
2016-03-20T14:04:51.003Z,1006.73
2016-03-20T14:07:54.229Z,1006.48
2016-03-20T14:11:04.784Z,1006.61
2016-03-20T14:14:17.042Z,1006.69
2016-03-20T14:17:26.193Z,1006.46
2016-03-20T14:20:37.358Z,1006.59
2016-03-20T14:23:49.225Z,1006.59
2016-03-20T14:27:01.436Z,1006.48
2016-03-20T14:30:10.694Z,1006.73
2016-03-20T14:33:20.187Z,1006.61
2016-03-20T14:36:29.947Z,1006.54
2016-03-20T14:39:44.893Z,1006.48
2016-03-20T14:42:48.339Z,1006.59
2016-03-20T14:46:00.754Z,1006.55
2016-03-20T14:49:12.996Z,1006.44
2016-03-20T14:52:24.990Z,1006.46
2016-03-20T14:55:36.514Z,1006.54
2016-03-20T14:58:50.632Z,1006.5
2016-03-20T15:01:53.953Z,1006.42
2016-03-20T15:05:06.210Z,1006.48
2016-03-20T15:08:17.749Z,1006.34
2016-03-20T15:11:28.245Z,1006.38
2016-03-20T15:14:44.503Z,1006.5
2016-03-20T15:17:47.651Z,1006.44
2016-03-20T15:20:59.737Z,1006.48
2016-03-20T15:24:07.106Z,1006.67
2016-03-20T15:27:19.957Z,1006.63
2016-03-20T15:30:31.280Z,1006.52
2016-03-20T15:33:46.944Z,1006.48
2016-03-20T15:36:50.203Z,1006.63
2016-03-20T15:40:02.305Z,1006.48
2016-03-20T15:43:12.499Z,1006.48
2016-03-20T15:46:24.510Z,1006.54
2016-03-20T15:49:34.581Z,1006.48
2016-03-20T15:52:49.668Z,1006.42
2016-03-20T15:55:52.925Z,1006.5
2016-03-20T15:59:05.199Z,1006.59
2016-03-20T16:02:15.739Z,1006.52
2016-03-20T16:05:27.702Z,1006.63
2016-03-20T16:08:37.491Z,1006.61
2016-03-20T16:11:47.593Z,1006.71
2016-03-20T16:14:59.211Z,1006.67
2016-03-20T16:18:10.907Z,1006.63
2016-03-20T16:21:22.259Z,1006.65
2016-03-20T16:24:34.284Z,1006.75
2016-03-20T16:27:50.106Z,1006.83
2016-03-20T16:30:53.176Z,1006.75
2016-03-20T16:34:03.511Z,1006.75
2016-03-20T16:37:14.019Z,1006.69
2016-03-20T16:40:25.844Z,1006.75
2016-03-20T16:43:36.774Z,1006.69
2016-03-20T16:46:48.968Z,1006.77
2016-03-20T16:49:58.586Z,1006.79
2016-03-20T16:53:10.642Z,1006.75
2016-03-20T16:56:18.806Z,1006.83
2016-03-20T16:59:28.378Z,1006.89
2016-03-20T17:02:36.855Z,1006.93
2016-03-20T17:05:48.863Z,1006.95
2016-03-20T17:08:59.882Z,1006.97
2016-03-20T17:12:11.368Z,1006.97
2016-03-20T17:15:22.034Z,1006.89
2016-03-20T17:18:33.326Z,1007.05
2016-03-20T17:21:49.162Z,1007.05
2016-03-20T17:24:52.373Z,1007.11
2016-03-20T17:28:02.052Z,1007.05
2016-03-20T17:31:12.716Z,1007.01
2016-03-20T17:34:24.525Z,1007.09
2016-03-20T17:37:34.141Z,1007.09
2016-03-20T17:40:49.979Z,1007.09
2016-03-20T17:43:53.174Z,1007.05
2016-03-20T17:47:04.963Z,1007.07
2016-03-20T17:50:16.534Z,1007.09
2016-03-20T17:53:28.638Z,1006.99
2016-03-20T17:56:44.647Z,1007.13
2016-03-20T17:59:47.889Z,1007.15
2016-03-20T18:03:00.100Z,1007.13
2016-03-20T18:06:11.733Z,1007.19
2016-03-20T18:09:23.993Z,1007.23
2016-03-20T18:12:35.877Z,1007.17
2016-03-20T18:15:49.619Z,1007.11
2016-03-20T18:18:52.784Z,1007.27
2016-03-20T18:22:04.776Z,1007.25
2016-03-20T18:25:15.143Z,1007.17
2016-03-20T18:28:25.716Z,1007.27
2016-03-20T18:31:35.662Z,1007.17
2016-03-20T18:34:48.702Z,1007.23
2016-03-20T18:37:51.897Z,1007.21
2016-03-20T18:41:00.811Z,1007.35
2016-03-20T18:44:11.023Z,1007.39
2016-03-20T18:47:18.171Z,1007.39
2016-03-20T18:50:28.729Z,1007.39
2016-03-20T18:53:42.690Z,1007.39
2016-03-20T18:56:49.776Z,1007.45
2016-03-20T18:59:52.863Z,1007.49
2016-03-20T19:02:59.808Z,1007.43
2016-03-20T19:06:11.441Z,1007.49
2016-03-20T19:09:18.734Z,1007.47
2016-03-20T19:12:26.745Z,1007.53
2016-03-20T19:15:35.128Z,1007.51
2016-03-20T19:18:48.730Z,1007.49
2016-03-20T19:21:51.661Z,1007.47
2016-03-20T19:25:00.169Z,1007.59
2016-03-20T19:28:11.848Z,1007.59
2016-03-20T19:31:23.481Z,1007.63
2016-03-20T19:34:34.571Z,1007.61
2016-03-20T19:37:50.407Z,1007.65
2016-03-20T19:40:53.320Z,1007.71
2016-03-20T19:44:04.786Z,1007.75
2016-03-20T19:47:16.216Z,1007.75
2016-03-20T19:50:27.335Z,1007.69
2016-03-20T19:53:43.171Z,1007.67
2016-03-20T19:56:50.071Z,1007.81
2016-03-20T19:59:53.001Z,1007.81
2016-03-20T20:03:04.758Z,1007.83
2016-03-20T20:06:14.376Z,1007.81
2016-03-20T20:09:22.711Z,1007.75
2016-03-20T20:12:32.598Z,1007.83
2016-03-20T20:15:51.496Z,1007.77
2016-03-20T20:18:51.317Z,1007.81
2016-03-20T20:22:03.013Z,1007.77
2016-03-20T20:25:14.818Z,1007.75
2016-03-20T20:28:26.750Z,1007.79
2016-03-20T20:31:36.102Z,1007.85
2016-03-20T20:34:51.001Z,1007.87
2016-03-20T20:37:54.028Z,1007.75
2016-03-20T20:41:03.442Z,1007.71
2016-03-20T20:44:16.294Z,1007.91
2016-03-20T20:47:26.944Z,1007.87
2016-03-20T20:50:34.249Z,1007.73
2016-03-20T20:53:49.460Z,1007.73
2016-03-20T20:56:52.438Z,1007.71
2016-03-20T21:00:01.868Z,1007.81
2016-03-20T21:03:11.407Z,1007.81
2016-03-20T21:06:21.977Z,1007.87
2016-03-20T21:09:33.192Z,1007.81
2016-03-20T21:12:47.169Z,1007.85
2016-03-20T21:15:49.989Z,1007.75
2016-03-20T21:19:00.357Z,1007.75
2016-03-20T21:22:07.958Z,1007.71
2016-03-20T21:25:16.888Z,1007.73
2016-03-20T21:28:24.490Z,1007.75
2016-03-20T21:31:34.345Z,1007.89
2016-03-20T21:34:49.150Z,1007.83
2016-03-20T21:37:51.423Z,1007.91
2016-03-20T21:41:01.619Z,1007.87
2016-03-20T21:44:09.799Z,1007.87
2016-03-20T21:47:21.369Z,1007.83
2016-03-20T21:50:31.208Z,1007.87
2016-03-20T21:53:46.404Z,1007.97
2016-03-20T21:56:49.099Z,1008
2016-03-20T21:59:59.576Z,1008
2016-03-20T22:03:08.694Z,1007.97
2016-03-20T22:06:17.359Z,1008.06
2016-03-20T22:09:26.866Z,1008.12
2016-03-20T22:12:38.564Z,1008.06
2016-03-20T22:15:50.292Z,1008.04
2016-03-20T22:19:01.549Z,1008
2016-03-20T22:22:11.401Z,1007.98
2016-03-20T22:25:21.660Z,1008.1
2016-03-20T22:28:30.699Z,1007.98
2016-03-20T22:31:44.975Z,1008.12
2016-03-20T22:34:51.529Z,1008.08
2016-03-20T22:37:54.209Z,1008.04
2016-03-20T22:41:05.273Z,1008.04
2016-03-20T22:44:16.516Z,1007.98
2016-03-20T22:47:28.012Z,1007.98
2016-03-20T22:50:43.418Z,1007.97
2016-03-20T22:53:50.172Z,1007.95
2016-03-20T22:56:52.928Z,1008
2016-03-20T23:00:04.671Z,1007.89
2016-03-20T23:03:13.741Z,1007.93
2016-03-20T23:06:22.781Z,1007.87
2016-03-20T23:09:34.288Z,1007.95
2016-03-20T23:12:50.049Z,1007.97
2016-03-20T23:15:52.902Z,1007.97
2016-03-20T23:19:02.159Z,1007.98
2016-03-20T23:22:14.058Z,1007.97
2016-03-20T23:25:25.816Z,1007.97
2016-03-20T23:28:36.983Z,1007.97
2016-03-20T23:31:52.022Z,1007.93
2016-03-20T23:34:54.811Z,1007.85
2016-03-20T23:38:06.569Z,1007.83
2016-03-20T23:41:18.156Z,1007.87
2016-03-20T23:44:29.726Z,1007.83
2016-03-20T23:47:45.190Z,1007.85
2016-03-20T23:50:51.995Z,1007.93
2016-03-20T23:53:54.800Z,1007.87
2016-03-20T23:57:04.903Z,1007.83
